createdAt,value
2023-11-07T00:01:28.518Z,11.40
2023-11-07T00:03:55.806Z,11.70
2023-11-07T00:06:22.983Z,11.37
2023-11-07T00:08:50.758Z,11.97
2023-11-07T00:11:17.765Z,11.87
2023-11-07T00:13:44.689Z,10.93
2023-11-07T00:16:12.589Z,11.23
2023-11-07T00:18:41.153Z,11.90
2023-11-07T00:21:12.264Z,11.10
2023-11-07T00:23:39.415Z,10.93
2023-11-07T00:26:06.897Z,11.80
2023-11-07T00:28:33.830Z,14.07
2023-11-07T00:31:00.910Z,11.97
2023-11-07T00:33:27.986Z,12.00
2023-11-07T00:35:55.160Z,12.20
2023-11-07T00:38:22.163Z,12.37
2023-11-07T00:40:49.947Z,12.27
2023-11-07T00:43:17.000Z,11.80
2023-11-07T00:45:44.874Z,11.67
2023-11-07T00:48:12.426Z,12.20
2023-11-07T00:50:39.403Z,12.77
2023-11-07T00:53:06.395Z,11.93
2023-11-07T00:55:33.287Z,12.47
2023-11-07T00:58:00.299Z,12.10
2023-11-07T01:00:28.641Z,11.63
2023-11-07T01:02:55.713Z,12.00
2023-11-07T01:05:22.973Z,13.37
2023-11-07T01:07:50.001Z,11.60
2023-11-07T01:10:16.982Z,11.80
2023-11-07T01:12:44.013Z,12.67
2023-11-07T01:15:11.528Z,11.57
2023-11-07T01:17:38.883Z,12.10
2023-11-07T01:20:11.054Z,12.20
2023-11-07T01:22:38.994Z,12.47
2023-11-07T01:25:06.867Z,12.83
2023-11-07T01:27:33.803Z,12.23
2023-11-07T01:30:00.825Z,11.23
2023-11-07T01:32:29.490Z,11.40
2023-11-07T01:34:56.592Z,11.87
2023-11-07T01:37:23.500Z,11.60
2023-11-07T01:39:50.803Z,11.50
2023-11-07T01:42:17.820Z,12.00
2023-11-07T01:44:51.091Z,12.63
2023-11-07T01:47:19.963Z,16.20
2023-11-07T01:49:47.778Z,12.70
2023-11-07T01:52:17.700Z,12.43
2023-11-07T01:54:48.339Z,12.30
2023-11-07T01:57:15.616Z,11.90
2023-11-07T01:59:43.061Z,12.77
2023-11-07T02:02:11.543Z,12.77
2023-11-07T02:04:39.507Z,12.30
2023-11-07T02:07:08.302Z,11.83
2023-11-07T02:09:35.228Z,11.90
2023-11-07T02:12:02.152Z,12.37
2023-11-07T02:14:29.906Z,12.50
2023-11-07T02:16:57.147Z,12.67
2023-11-07T02:19:24.089Z,12.13
2023-11-07T02:21:53.930Z,12.93
2023-11-07T02:24:20.970Z,12.37
2023-11-07T02:26:48.060Z,12.30
2023-11-07T02:29:15.492Z,12.87
2023-11-07T02:31:42.369Z,13.30
2023-11-07T02:34:10.602Z,12.50
2023-11-07T02:36:39.879Z,12.63
2023-11-07T02:39:09.605Z,12.30
2023-11-07T02:41:36.637Z,12.37
2023-11-07T02:44:03.968Z,12.50
2023-11-07T02:46:30.887Z,14.60
2023-11-07T02:48:58.127Z,12.20
2023-11-07T02:51:25.404Z,11.97
2023-11-07T02:53:52.430Z,12.43
2023-11-07T02:56:29.126Z,12.10
2023-11-07T02:58:56.580Z,11.77
2023-11-07T03:05:23.666Z,11.67
2023-11-07T03:07:50.778Z,11.70
2023-11-07T03:10:17.791Z,11.77
2023-11-07T03:12:46.293Z,12.17
2023-11-07T03:15:14.691Z,12.10
2023-11-07T03:17:42.384Z,11.63
2023-11-07T03:20:10.191Z,12.30
2023-11-07T03:22:37.136Z,12.80
2023-11-07T03:25:05.323Z,11.67
2023-11-07T03:27:32.349Z,11.53
2023-11-07T03:29:59.341Z,11.57
2023-11-07T03:32:26.415Z,12.57
2023-11-07T03:34:53.339Z,12.40
2023-11-07T03:37:20.222Z,12.20
2023-11-07T03:39:47.347Z,11.47
2023-11-07T03:42:14.511Z,12.23
2023-11-07T03:44:42.109Z,11.70
2023-11-07T03:47:09.153Z,12.27
2023-11-07T03:49:36.831Z,12.30
2023-11-07T03:52:03.941Z,11.80
2023-11-07T03:54:30.832Z,12.73
2023-11-07T03:56:57.919Z,11.47
2023-11-07T03:59:24.864Z,11.90
2023-11-07T04:01:53.337Z,12.00
2023-11-07T04:04:21.348Z,11.83
2023-11-07T04:06:50.039Z,11.73
2023-11-07T04:09:18.937Z,11.33
2023-11-07T04:11:46.013Z,11.17
2023-11-07T04:14:14.699Z,11.70
2023-11-07T04:16:41.638Z,11.90
2023-11-07T04:19:09.235Z,11.80
2023-11-07T04:21:37.001Z,12.17
2023-11-07T04:24:06.237Z,11.87
2023-11-07T04:26:33.437Z,12.33
2023-11-07T04:29:00.357Z,12.30
2023-11-07T04:31:30.493Z,11.80
2023-11-07T04:33:57.491Z,12.20
2023-11-07T04:36:24.439Z,12.53
2023-11-07T04:38:51.459Z,11.80
2023-11-07T04:41:18.490Z,12.20
2023-11-07T04:43:45.612Z,11.80
2023-11-07T04:46:13.390Z,11.77
2023-11-07T04:48:40.634Z,11.80
2023-11-07T04:51:07.750Z,12.27
2023-11-07T04:53:34.806Z,11.67
2023-11-07T04:56:01.765Z,11.33
2023-11-07T04:58:28.683Z,11.57
2023-11-07T05:00:55.554Z,12.00
2023-11-07T05:03:29.705Z,11.30
2023-11-07T05:06:02.795Z,12.53
2023-11-07T05:08:30.379Z,12.60
2023-11-07T05:10:57.419Z,11.70
2023-11-07T05:13:24.294Z,11.60
2023-11-07T05:15:51.210Z,11.80
2023-11-07T05:18:18.137Z,11.63
2023-11-07T05:20:45.176Z,12.60
2023-11-07T05:23:12.269Z,12.57
2023-11-07T05:25:39.291Z,11.70
2023-11-07T05:28:06.409Z,11.60
2023-11-07T05:30:33.548Z,11.97
2023-11-07T05:33:00.630Z,11.60
2023-11-07T05:35:27.609Z,11.97
2023-11-07T05:37:55.697Z,11.70
2023-11-07T05:40:25.165Z,11.93
2023-11-07T05:42:53.337Z,11.57
2023-11-07T05:45:20.691Z,12.83
2023-11-07T05:47:47.884Z,13.07
2023-11-07T05:50:14.958Z,11.70
2023-11-07T05:52:41.867Z,11.70
2023-11-07T05:55:09.687Z,12.07
2023-11-07T05:57:37.209Z,11.63
2023-11-07T06:00:08.909Z,11.47
2023-11-07T06:02:39.308Z,11.67
2023-11-07T06:05:10.694Z,11.63
2023-11-07T06:07:37.751Z,11.50
2023-11-07T06:10:05.065Z,11.40
2023-11-07T06:12:31.992Z,11.70
2023-11-07T06:14:59.000Z,12.40
2023-11-07T06:17:26.029Z,11.60
2023-11-07T06:19:52.924Z,12.13
2023-11-07T06:22:19.848Z,12.20
2023-11-07T06:24:47.335Z,12.13
2023-11-07T06:27:14.381Z,11.37
2023-11-07T06:29:43.757Z,11.53
2023-11-07T06:32:11.437Z,10.90
2023-11-07T06:34:38.733Z,12.27
2023-11-07T06:37:05.815Z,13.03
2023-11-07T06:39:32.781Z,12.77
2023-11-07T06:42:00.091Z,14.17
2023-11-07T06:44:30.057Z,16.50
2023-11-07T06:46:57.111Z,13.00
2023-11-07T06:49:25.359Z,13.30
2023-11-07T06:51:52.802Z,12.30
2023-11-07T06:54:19.835Z,14.10
2023-11-07T06:56:48.216Z,14.40
2023-11-07T06:59:15.316Z,13.47
2023-11-07T07:01:42.228Z,13.40
2023-11-07T07:04:11.236Z,14.17
2023-11-07T07:06:38.672Z,12.30
2023-11-07T07:09:06.309Z,12.67
2023-11-07T07:11:33.875Z,13.40
2023-11-07T07:14:00.947Z,13.23
2023-11-07T07:16:31.591Z,13.57
2023-11-07T07:18:58.903Z,13.47
2023-11-07T07:21:26.413Z,13.10
2023-11-07T07:26:23.497Z,17.83
2023-11-07T07:28:53.418Z,13.17
2023-11-07T07:31:28.322Z,15.80
2023-11-07T07:33:57.660Z,14.83
2023-11-07T07:36:24.982Z,14.97
2023-11-07T07:38:53.844Z,14.60
2023-11-07T07:41:21.795Z,16.77
2023-11-07T07:43:48.780Z,14.40
2023-11-07T07:46:16.411Z,14.57
2023-11-07T07:48:46.799Z,14.60
2023-11-07T07:51:15.445Z,13.83
2023-11-07T07:53:43.430Z,14.00
2023-11-07T07:56:14.934Z,14.30
2023-11-07T07:58:43.665Z,15.10
2023-11-07T08:01:11.178Z,14.87
2023-11-07T08:03:39.652Z,13.93
2023-11-07T08:06:07.266Z,13.27
2023-11-07T08:08:34.178Z,13.23
2023-11-07T08:11:01.096Z,13.50
2023-11-07T08:13:30.101Z,13.90
2023-11-07T08:15:57.077Z,12.80
2023-11-07T08:18:24.484Z,12.97
2023-11-07T08:20:51.964Z,13.13
2023-11-07T08:23:19.207Z,13.97
2023-11-07T08:25:46.069Z,13.20
2023-11-07T08:28:13.954Z,13.50
2023-11-07T08:30:45.186Z,12.90
2023-11-07T08:33:15.033Z,12.70
2023-11-07T08:35:42.130Z,13.10
2023-11-07T08:38:09.066Z,13.00
2023-11-07T08:40:36.749Z,12.40
2023-11-07T08:43:04.379Z,13.57
2023-11-07T08:45:33.922Z,13.30
2023-11-07T08:48:01.512Z,13.73
2023-11-07T08:50:28.571Z,13.30
2023-11-07T08:52:57.714Z,12.33
2023-11-07T08:55:26.866Z,12.70
2023-11-07T08:57:54.811Z,13.17
2023-11-07T09:00:28.616Z,14.82
2023-11-07T09:02:55.940Z,15.55
2023-11-07T09:05:23.899Z,15.50
2023-11-07T09:07:51.700Z,16.55
2023-11-07T09:10:21.303Z,14.40
2023-11-07T09:12:48.417Z,14.65
2023-11-07T09:15:15.843Z,13.82
2023-11-07T09:17:43.885Z,15.48
2023-11-07T09:20:15.217Z,13.70
2023-11-07T09:22:42.523Z,13.60
2023-11-07T09:25:10.690Z,14.63
2023-11-07T09:27:38.058Z,14.18
2023-11-07T09:30:11.020Z,14.65
2023-11-07T09:32:44.173Z,13.80
2023-11-07T09:35:12.467Z,14.60
2023-11-07T09:37:44.798Z,14.02
2023-11-07T09:40:20.862Z,14.85
2023-11-07T09:42:50.144Z,14.65
2023-11-07T09:45:19.720Z,14.30
2023-11-07T09:47:49.404Z,14.73
2023-11-07T09:50:23.749Z,14.23
2023-11-07T09:52:52.990Z,14.00
2023-11-07T09:55:20.175Z,14.68
2023-11-07T09:58:09.088Z,14.15
2023-11-07T10:00:46.656Z,14.13
2023-11-07T10:03:15.444Z,14.13
2023-11-07T10:05:43.055Z,14.40
2023-11-07T10:08:10.369Z,14.50
2023-11-07T10:10:37.412Z,14.70
2023-11-07T10:13:12.499Z,14.13
2023-11-07T10:15:40.901Z,14.40
2023-11-07T10:18:13.165Z,14.13
2023-11-07T10:20:56.126Z,14.40
2023-11-07T10:23:23.933Z,15.18
2023-11-07T10:25:51.959Z,14.63
2023-11-07T10:28:23.967Z,14.93
2023-11-07T10:30:52.061Z,13.65
2023-11-07T10:33:33.975Z,15.10
2023-11-07T10:36:04.115Z,14.63
2023-11-07T10:38:32.190Z,14.27
2023-11-07T10:41:00.426Z,14.30
2023-11-07T10:43:41.429Z,14.38
2023-11-07T10:46:12.449Z,14.57
2023-11-07T10:48:41.533Z,14.20
2023-11-07T10:51:16.263Z,15.00
2023-11-07T10:53:44.197Z,14.23
2023-11-07T10:56:16.321Z,14.18
2023-11-07T10:59:00.561Z,13.48
2023-11-07T11:01:29.001Z,14.30
2023-11-07T11:03:59.685Z,13.88
2023-11-07T11:06:27.535Z,14.18
2023-11-07T11:08:57.893Z,13.57
2023-11-07T11:11:32.026Z,14.23
2023-11-07T11:14:00.455Z,13.52
2023-11-07T11:16:29.976Z,13.55
2023-11-07T11:19:01.241Z,14.20
2023-11-07T11:21:37.407Z,14.02
2023-11-07T11:24:15.020Z,13.90
2023-11-07T11:26:48.567Z,14.15
2023-11-07T11:29:26.321Z,14.45
2023-11-07T11:31:53.933Z,14.10
2023-11-07T11:34:29.932Z,14.82
2023-11-07T11:36:58.879Z,14.25
2023-11-07T11:39:46.782Z,14.90
2023-11-07T11:42:14.045Z,14.80
2023-11-07T11:44:41.107Z,15.43
2023-11-07T11:47:10.634Z,15.07
2023-11-07T11:49:43.373Z,15.73
2023-11-07T11:52:35.708Z,15.32
2023-11-07T11:55:08.542Z,15.40
2023-11-07T11:58:22.554Z,15.25
2023-11-07T12:00:50.866Z,17.55
2023-11-07T12:03:20.055Z,14.43
2023-11-07T12:06:07.184Z,14.50
2023-11-07T12:08:34.629Z,15.15
2023-11-07T12:11:03.381Z,16.73
2023-11-07T12:13:34.065Z,16.13
2023-11-07T12:16:19.791Z,16.02
2023-11-07T12:18:51.130Z,15.40
2023-11-07T12:21:26.098Z,15.25
2023-11-07T12:23:54.880Z,14.80
2023-11-07T12:26:22.151Z,16.98
2023-11-07T12:28:50.201Z,15.02
2023-11-07T12:31:25.198Z,15.38
2023-11-07T12:33:52.953Z,15.15
2023-11-07T12:36:20.138Z,15.07
2023-11-07T12:38:47.319Z,13.80
2023-11-07T12:41:14.667Z,14.93
2023-11-07T12:43:45.639Z,15.25
2023-11-07T12:46:15.939Z,15.05
2023-11-07T12:48:43.058Z,15.82
2023-11-07T12:51:10.832Z,15.23
2023-11-07T12:53:50.690Z,15.10
2023-11-07T12:56:19.942Z,15.18
2023-11-07T12:58:47.504Z,15.40
2023-11-07T13:01:14.645Z,15.60
2023-11-07T13:03:41.771Z,15.73
2023-11-07T13:06:13.619Z,15.68
2023-11-07T13:08:48.529Z,15.40
2023-11-07T13:11:20.417Z,15.15
2023-11-07T13:13:53.701Z,14.80
2023-11-07T13:16:21.320Z,14.65
2023-11-07T13:18:58.449Z,14.82
2023-11-07T13:21:26.080Z,14.70
2023-11-07T13:23:53.236Z,15.57
2023-11-07T13:26:21.586Z,14.60
2023-11-07T13:28:48.587Z,15.13
2023-11-07T13:31:15.839Z,15.48
2023-11-07T13:33:45.365Z,15.30
2023-11-07T13:36:16.893Z,15.40
2023-11-07T13:38:47.168Z,15.30
2023-11-07T13:41:14.436Z,15.20
2023-11-07T13:43:41.773Z,15.02
2023-11-07T13:46:08.912Z,14.80
2023-11-07T13:48:36.048Z,14.98
2023-11-07T13:51:03.256Z,15.88
2023-11-07T13:53:30.538Z,15.50
2023-11-07T13:55:57.626Z,15.35
2023-11-07T13:58:24.578Z,15.87
2023-11-07T14:00:51.653Z,16.33
2023-11-07T14:03:18.655Z,22.07
2023-11-07T14:05:46.705Z,18.80
2023-11-07T14:08:15.854Z,20.53
2023-11-07T14:10:45.475Z,18.27
2023-11-07T14:13:12.396Z,19.10
2023-11-07T14:15:39.555Z,17.58
2023-11-07T14:18:13.242Z,16.90
2023-11-07T14:20:59.670Z,16.65
2023-11-07T14:23:27.748Z,15.23
2023-11-07T14:25:54.874Z,15.67
2023-11-07T14:28:21.934Z,15.27
2023-11-07T14:30:48.858Z,15.30
2023-11-07T14:33:20.973Z,16.50
2023-11-07T14:35:48.082Z,16.73
2023-11-07T14:38:16.939Z,16.63
2023-11-07T14:40:46.776Z,14.93
2023-11-07T14:43:17.298Z,14.82
2023-11-07T14:45:45.588Z,15.30
2023-11-07T14:48:15.136Z,15.00
2023-11-07T14:50:42.640Z,14.80
2023-11-07T14:53:09.506Z,15.60
2023-11-07T14:55:36.907Z,15.40
2023-11-07T14:58:07.766Z,15.60
2023-11-07T15:00:41.599Z,16.80
2023-11-07T15:03:11.794Z,15.57
2023-11-07T15:05:40.509Z,15.70
2023-11-07T15:08:08.129Z,16.47
2023-11-07T15:10:36.302Z,15.80
2023-11-07T15:13:05.342Z,15.63
2023-11-07T15:15:34.093Z,15.83
2023-11-07T15:18:11.310Z,15.33
2023-11-07T15:20:41.348Z,15.50
2023-11-07T15:23:09.043Z,16.87
2023-11-07T15:25:37.236Z,18.53
2023-11-07T15:28:04.996Z,17.90
2023-11-07T15:30:32.564Z,15.80
2023-11-07T15:33:02.199Z,16.67
2023-11-07T15:35:35.725Z,16.13
2023-11-07T15:38:03.708Z,15.50
2023-11-07T15:40:30.712Z,15.10
2023-11-07T15:42:57.545Z,14.90
2023-11-07T15:45:24.606Z,15.03
2023-11-07T15:47:51.688Z,15.37
2023-11-07T15:50:18.985Z,15.90
2023-11-07T15:53:04.094Z,15.70
2023-11-07T15:55:37.784Z,15.50
2023-11-07T15:58:04.868Z,14.23
2023-11-07T16:00:33.151Z,15.93
2023-11-07T16:03:00.261Z,14.13
2023-11-07T16:05:33.293Z,14.97
2023-11-07T16:08:00.443Z,14.40
2023-11-07T16:10:27.449Z,15.13
2023-11-07T16:12:54.883Z,15.10
2023-11-07T16:15:22.824Z,14.17
2023-11-07T16:17:51.947Z,14.77
2023-11-07T16:20:23.326Z,14.80
2023-11-07T16:22:50.325Z,14.30
2023-11-07T16:25:17.949Z,15.43
2023-11-07T16:27:45.527Z,15.23
2023-11-07T16:30:16.211Z,15.70
2023-11-07T16:32:43.233Z,15.37
2023-11-07T16:35:11.767Z,16.37
2023-11-07T16:37:39.344Z,15.53
2023-11-07T16:40:12.835Z,16.20
2023-11-07T16:42:41.742Z,14.37
2023-11-07T16:45:12.403Z,14.03
2023-11-07T16:47:42.558Z,16.30
2023-11-07T16:50:11.732Z,14.83
2023-11-07T16:52:41.799Z,15.13
2023-11-07T16:55:14.646Z,14.70
2023-11-07T16:57:43.708Z,16.27
2023-11-07T17:00:12.679Z,15.50
2023-11-07T17:02:40.352Z,15.37
2023-11-07T17:05:07.950Z,15.80
2023-11-07T17:07:34.900Z,13.97
2023-11-07T17:10:04.965Z,15.40
2023-11-07T17:12:32.516Z,15.37
2023-11-07T17:14:59.479Z,15.80
2023-11-07T17:17:26.883Z,15.40
2023-11-07T17:19:53.920Z,14.93
2023-11-07T17:22:20.947Z,15.20
2023-11-07T17:24:48.142Z,15.10
2023-11-07T17:27:15.193Z,15.63
2023-11-07T17:29:42.202Z,15.40
2023-11-07T17:32:12.087Z,15.10
2023-11-07T17:34:42.192Z,14.07
2023-11-07T17:37:09.208Z,14.70
2023-11-07T17:39:37.271Z,18.50
2023-11-07T17:42:05.705Z,14.10
2023-11-07T17:44:36.587Z,14.60
2023-11-07T17:47:03.582Z,14.00
2023-11-07T17:49:30.552Z,15.03
2023-11-07T17:51:57.557Z,14.30
2023-11-07T17:54:24.581Z,15.33
2023-11-07T17:56:51.570Z,16.57
2023-11-07T17:59:18.489Z,14.17
2023-11-07T18:01:45.481Z,15.17
2023-11-07T18:04:14.488Z,16.27
2023-11-07T18:06:44.554Z,16.03
2023-11-07T18:09:14.132Z,16.67
2023-11-07T18:11:42.104Z,14.30
2023-11-07T18:14:12.472Z,15.20
2023-11-07T18:16:39.770Z,13.73
2023-11-07T18:19:06.870Z,14.00
2023-11-07T18:21:42.647Z,14.80
2023-11-07T18:24:11.367Z,14.43
2023-11-07T18:26:39.197Z,15.90
2023-11-07T18:29:06.177Z,15.00
2023-11-07T18:31:33.175Z,15.37
2023-11-07T18:34:08.990Z,16.10
2023-11-07T18:37:00.743Z,15.00
2023-11-07T18:39:29.014Z,14.90
2023-11-07T18:41:56.474Z,15.93
2023-11-07T18:44:24.540Z,14.53
2023-11-07T18:46:51.472Z,14.80
2023-11-07T18:49:20.212Z,15.37
2023-11-07T18:51:48.008Z,14.43
2023-11-07T18:54:15.910Z,14.30
2023-11-07T18:56:45.646Z,14.80
2023-11-07T18:59:19.095Z,14.57
2023-11-07T19:01:51.164Z,14.30
2023-11-07T19:04:18.391Z,15.10
2023-11-07T19:06:45.800Z,14.93
2023-11-07T19:09:14.347Z,14.87
2023-11-07T19:11:41.763Z,14.97
2023-11-07T19:14:10.213Z,15.83
2023-11-07T19:16:37.559Z,16.50
2023-11-07T19:19:05.807Z,16.93
2023-11-07T19:21:33.133Z,17.00
2023-11-07T19:24:00.262Z,15.90
2023-11-07T19:26:27.602Z,14.23
2023-11-07T19:28:55.379Z,15.20
2023-11-07T19:31:22.905Z,14.50
2023-11-07T19:33:50.202Z,14.30
2023-11-07T19:36:17.482Z,14.43
2023-11-07T19:38:45.068Z,14.90
2023-11-07T19:41:13.595Z,17.83
2023-11-07T19:43:43.309Z,15.43
2023-11-07T19:46:12.380Z,14.30
2023-11-07T19:48:39.993Z,15.17
2023-11-07T19:51:07.030Z,15.37
2023-11-07T19:53:34.561Z,14.93
2023-11-07T19:56:02.009Z,15.97
2023-11-07T19:58:29.309Z,15.03
2023-11-07T20:00:57.711Z,14.50
2023-11-07T20:03:29.044Z,17.27
2023-11-07T20:05:56.171Z,15.77
2023-11-07T20:08:24.569Z,14.43
2023-11-07T20:10:52.887Z,16.10
2023-11-07T20:13:19.903Z,14.00
2023-11-07T20:15:46.859Z,14.30
2023-11-07T20:18:14.129Z,13.97
2023-11-07T20:20:41.208Z,14.13
2023-11-07T20:23:09.344Z,13.67
2023-11-07T20:25:36.324Z,14.20
2023-11-07T20:28:04.845Z,13.70
2023-11-07T20:30:32.773Z,13.87
2023-11-07T20:33:00.622Z,13.80
2023-11-07T20:35:29.116Z,13.57
2023-11-07T20:37:56.909Z,13.77
2023-11-07T20:40:23.795Z,14.47
2023-11-07T20:42:51.218Z,14.43
2023-11-07T20:45:20.201Z,14.23
2023-11-07T20:47:47.502Z,14.27
2023-11-07T20:50:17.563Z,13.73
2023-11-07T20:52:44.745Z,13.20
2023-11-07T20:55:11.841Z,12.93
2023-11-07T20:57:39.006Z,13.23
2023-11-07T21:00:08.396Z,14.33
2023-11-07T21:02:35.784Z,13.20
2023-11-07T21:05:02.839Z,13.53
2023-11-07T21:07:29.732Z,13.33
2023-11-07T21:09:58.194Z,13.20
2023-11-07T21:12:25.133Z,13.90
2023-11-07T21:14:52.321Z,13.17
2023-11-07T21:17:20.311Z,13.70
2023-11-07T21:19:47.891Z,13.10
2023-11-07T21:22:14.798Z,13.57
2023-11-07T21:24:41.921Z,13.10
2023-11-07T21:27:09.396Z,13.93
2023-11-07T21:29:36.546Z,14.00
2023-11-07T21:32:05.663Z,13.60
2023-11-07T21:34:32.819Z,13.60
2023-11-07T21:36:59.729Z,13.27
2023-11-07T21:39:26.780Z,13.13
2023-11-07T21:41:53.798Z,13.70
2023-11-07T21:44:20.814Z,13.73
2023-11-07T21:46:47.770Z,15.53
2023-11-07T21:49:14.797Z,13.47
2023-11-07T21:51:41.815Z,14.00
2023-11-07T21:54:08.815Z,14.47
2023-11-07T21:56:36.384Z,13.60
2023-11-07T21:59:03.736Z,13.03
2023-11-07T22:01:30.911Z,13.50
2023-11-07T22:03:58.208Z,13.17
2023-11-07T22:06:25.316Z,13.60
2023-11-07T22:08:52.484Z,13.40
2023-11-07T22:11:19.976Z,13.80
2023-11-07T22:13:46.870Z,13.77
2023-11-07T22:16:17.901Z,13.50
2023-11-07T22:18:44.995Z,14.10
2023-11-07T22:21:12.058Z,13.80
2023-11-07T22:23:40.385Z,14.00
2023-11-07T22:26:08.905Z,13.57
2023-11-07T22:28:36.093Z,14.93
2023-11-07T22:31:03.112Z,14.23
2023-11-07T22:33:30.337Z,14.77
2023-11-07T22:35:57.449Z,14.90
2023-11-07T22:38:24.433Z,14.30
2023-11-07T22:40:51.391Z,14.30
2023-11-07T22:43:20.025Z,15.37
2023-11-07T22:45:48.009Z,14.00
2023-11-07T22:48:15.158Z,15.00
2023-11-07T22:50:42.170Z,14.30
2023-11-07T22:53:09.529Z,14.17
2023-11-07T22:55:37.728Z,13.97
2023-11-07T22:58:05.945Z,14.80
2023-11-07T23:00:42.033Z,14.37
2023-11-07T23:03:12.365Z,13.93
2023-11-07T23:05:41.068Z,14.00
2023-11-07T23:08:12.009Z,14.23
2023-11-07T23:10:40.220Z,13.97
2023-11-07T23:13:08.325Z,13.30
2023-11-07T23:15:37.628Z,14.20
2023-11-07T23:18:06.170Z,14.07
2023-11-07T23:20:37.684Z,13.90
2023-11-07T23:23:04.620Z,13.57
2023-11-07T23:25:31.761Z,14.57
2023-11-07T23:27:58.843Z,14.90
2023-11-07T23:30:25.795Z,15.17
2023-11-07T23:32:52.807Z,14.37
2023-11-07T23:35:19.870Z,14.70
2023-11-07T23:37:47.388Z,13.83
2023-11-07T23:40:14.264Z,14.37
2023-11-07T23:42:44.888Z,15.23
2023-11-07T23:45:12.220Z,14.07
2023-11-07T23:47:41.428Z,13.90
2023-11-07T23:50:09.108Z,14.13
2023-11-07T23:52:38.822Z,13.77
2023-11-07T23:55:07.581Z,14.33
2023-11-07T23:57:35.390Z,14.37
